Pacific - Georgia Basin: Past 24 Hour Conditions

 

Entrance Island

03:00 PM PDT 22 October 2014
This table is a summary of hourly weather conditions for the past 24 hours.
Date / Time
(PDT)
Wind(knots) Conditions Visibility(km) Pressure(kPa) Air tempC) Relative humidity(%) Dew pointC)
22 October 2014
15:00 SE 14 N/A N/A 100.2 12 84 9
14:00 SSE 18 N/A N/A 100.2 12 84 9
13:00 SE 11 N/A N/A 100.3 12 87 10
12:00 ESE 13 N/A N/A 100.3 11 83 9
11:00 SSE 12 N/A N/A 100.4 13 81 9
10:00 ESE 5 N/A N/A 100.3 13 83 10
9:00 ESE 8 N/A N/A 100.3 12 89 10
8:00 SSE 15 N/A N/A 100.2 11 89 10
7:00 SE 17 N/A N/A 100.1 11 88 9
6:00 SSE 16 N/A N/A 100.1 12 88 10
5:00 SSE 19 gust 25 N/A N/A 99.9 12 86 10
4:00 SSE 29 gust 34 N/A N/A 99.8 12 88 10
3:00 SSE 28 gust 34 N/A N/A 99.8 12 88 10
2:00 SSE 31 gust 38 N/A N/A 99.8 11 86 9
1:00 SSE 29 gust 37 N/A N/A 99.8 12 85 9
0:00 SE 30 N/A N/A 99.9 12 84 10
21 October 2014
23:00 SE 28 gust 38 N/A N/A 100.1 12 83 10
22:00 SSE 28 gust 36 N/A N/A 100.2 13 81 10
21:00 SSE 25 N/A N/A 100.3 12 86 10
20:00 SE 19 N/A N/A 100.4 12 88 10
19:00 SSE 25 N/A N/A 100.5 12 87 10
18:00 SSE 19 gust 26 N/A N/A 100.6 12 87 10
17:00 SSE 19 gust 25 N/A N/A 100.7 13 84 10
16:00 SSE 19 N/A N/A 100.7 12 86 10
15:00 SE 19 N/A N/A 100.8 12 87 10
 
Map of Pacific - Georgia Basin marine weather areas Tsawwassen Ferry Terminal Sentry Shoal - 46131 Halibut Bank - 46146 La Perouse Bank - 46206 Discovery Island Esquimalt Harbour Kelp Reefs Malahat Race Rocks Lightstation Saturna Island Sheringham Point University of Victoria Victoria Gonzales Victoria Int'l Airport Ballenas Islands Campbell River Airport Comox Airport Entrance Island Fanny Island Nanaimo Airport Sisters Islets Estevan Point Tofino Airport Grief Point Powell River Airport Sechelt Point Atkinson Sand Heads Lightstation Vancouver Harbour Vancouver Int'l Airport West Vancouver Port Alberni Howe Sound - Pam Rocks Squamish Airport